createdAt,value
2022-12-23T00:01:17.469Z,93949.13
2022-12-23T00:04:20.576Z,93952.06
2022-12-23T00:07:23.749Z,93944.81
2022-12-23T00:10:26.543Z,93954.75
2022-12-23T00:13:48.068Z,93955.25
2022-12-23T00:16:51.978Z,93965.81
2022-12-23T00:19:55.094Z,93967.94
2022-12-23T00:23:06.857Z,93970.50
2022-12-23T00:26:16.078Z,93976.59
2022-12-23T00:29:19.238Z,93987.16
2022-12-23T00:32:22.385Z,93996.38
2022-12-23T00:35:25.490Z,94002.69
2022-12-23T00:38:47.324Z,94002.13
2022-12-23T00:42:08.681Z,93999.50
2022-12-23T00:45:17.787Z,93998.41
2022-12-23T00:48:39.493Z,94009.50
2022-12-23T00:51:42.697Z,94001.16
2022-12-23T00:54:46.113Z,93994.75
2022-12-23T00:57:49.576Z,94001.38
2022-12-23T01:01:12.772Z,94008.72
2022-12-23T01:04:35.667Z,94014.84
2022-12-23T01:07:38.913Z,94021.78
2022-12-23T01:10:42.113Z,94024.91
2022-12-23T01:13:45.205Z,94020.22
2022-12-23T01:16:48.413Z,94023.28
2022-12-23T01:19:52.221Z,94029.34
2022-12-23T01:22:55.385Z,94023.97
2022-12-23T01:26:00.478Z,94023.97
2022-12-23T01:29:03.690Z,94035.25
2022-12-23T01:32:06.519Z,94020.00
2022-12-23T01:35:09.737Z,94017.00
2022-12-23T01:38:13.179Z,94008.88
2022-12-23T01:41:46.892Z,94015.94
2022-12-23T01:44:51.955Z,94028.81
2022-12-23T01:48:10.829Z,94029.88
2022-12-23T01:51:23.971Z,94035.63
2022-12-23T01:54:27.419Z,94046.88
2022-12-23T01:57:31.102Z,94048.09
2022-12-23T02:00:52.400Z,94061.03
2022-12-23T02:04:00.252Z,94070.34
2022-12-23T02:07:22.442Z,94068.75
2022-12-23T02:10:34.470Z,94066.56
2022-12-23T02:14:12.214Z,94064.38
2022-12-23T02:17:47.723Z,94068.06
2022-12-23T02:21:08.589Z,94060.63
2022-12-23T02:24:57.119Z,94065.88
2022-12-23T02:28:42.165Z,94060.03
2022-12-23T02:32:03.219Z,94061.88
2022-12-23T02:35:09.079Z,94075.78
2022-12-23T02:38:12.186Z,94072.28
2022-12-23T02:41:29.244Z,94072.28
2022-12-23T02:44:42.743Z,94074.41
2022-12-23T02:47:49.999Z,94080.94
2022-12-23T02:50:55.620Z,94079.19
2022-12-23T02:54:03.208Z,94082.13
2022-12-23T02:57:08.762Z,94080.66
2022-12-23T03:00:13.364Z,94082.88
2022-12-23T03:03:17.958Z,94079.84
2022-12-23T03:06:31.103Z,94083.31
2022-12-23T03:09:46.128Z,94083.47
2022-12-23T03:13:20.023Z,94071.91
2022-12-23T03:16:42.703Z,94073.03
2022-12-23T03:19:59.717Z,94069.91
2022-12-23T03:23:31.260Z,94075.16
2022-12-23T03:26:37.139Z,94073.38
2022-12-23T03:29:49.118Z,94066.91
2022-12-23T03:32:55.403Z,94069.66
2022-12-23T03:36:17.478Z,94071.06
2022-12-23T03:39:26.460Z,94065.97
2022-12-23T03:42:45.821Z,94059.88
2022-12-23T03:46:04.259Z,94065.69
2022-12-23T03:49:12.546Z,94062.63
2022-12-23T03:52:21.681Z,94056.81
2022-12-23T03:55:33.933Z,94049.34
2022-12-23T03:58:42.797Z,94048.66
2022-12-23T04:02:04.035Z,94054.03
2022-12-23T04:05:32.335Z,94063.13
2022-12-23T04:08:38.158Z,94071.50
2022-12-23T04:11:41.590Z,94070.97
2022-12-23T04:14:49.586Z,94070.22
2022-12-23T04:17:54.051Z,94054.56
2022-12-23T04:20:57.255Z,94055.06
2022-12-23T04:24:00.395Z,94055.97
2022-12-23T04:27:04.007Z,94058.16
2022-12-23T04:30:11.500Z,94058.09
2022-12-23T04:33:17.628Z,94051.25
2022-12-23T04:36:20.765Z,94054.31
2022-12-23T04:39:24.044Z,94045.94
2022-12-23T04:42:27.172Z,94042.03
2022-12-23T04:45:30.242Z,94048.75
2022-12-23T04:48:33.275Z,94052.72
2022-12-23T04:51:37.001Z,94051.59
2022-12-23T04:54:45.762Z,94055.91
2022-12-23T04:57:50.028Z,94049.22
2022-12-23T05:01:06.043Z,94046.47
2022-12-23T05:04:10.553Z,94048.72
2022-12-23T05:07:13.637Z,94042.84
2022-12-23T05:10:16.837Z,94054.63
2022-12-23T05:13:20.269Z,94049.31
2022-12-23T05:16:23.787Z,94053.63
2022-12-23T05:19:26.906Z,94052.69
2022-12-23T05:22:30.048Z,94055.88
2022-12-23T05:25:37.560Z,94052.28
2022-12-23T05:28:40.718Z,94048.13
2022-12-23T05:31:44.673Z,94029.00
2022-12-23T05:34:48.019Z,94032.53
2022-12-23T05:37:51.363Z,94026.84
2022-12-23T05:40:54.891Z,94033.53
2022-12-23T05:43:58.092Z,94040.34
2022-12-23T05:47:01.230Z,94035.13
2022-12-23T05:50:05.062Z,94036.28
2022-12-23T05:53:08.517Z,94029.78
2022-12-23T05:56:11.564Z,94028.47
2022-12-23T05:59:14.614Z,94028.44
2022-12-23T06:02:17.905Z,94026.78
2022-12-23T06:05:21.562Z,94035.69
2022-12-23T06:08:24.668Z,94035.72
2022-12-23T06:11:28.378Z,94045.53
2022-12-23T06:14:31.479Z,94042.09
2022-12-23T06:17:34.753Z,94041.91
2022-12-23T06:20:38.159Z,94043.09
2022-12-23T06:23:41.217Z,94042.22
2022-12-23T06:26:44.369Z,94048.00
2022-12-23T06:29:47.495Z,94052.44
2022-12-23T06:32:51.135Z,94051.53
2022-12-23T06:35:55.001Z,94054.56
2022-12-23T06:38:58.525Z,94060.75
2022-12-23T06:42:01.752Z,94059.63
2022-12-23T06:45:05.142Z,94064.09
2022-12-23T06:48:08.453Z,94057.47
2022-12-23T06:51:12.163Z,94064.09
2022-12-23T06:54:15.358Z,94066.38
2022-12-23T06:57:18.645Z,94075.63
2022-12-23T07:00:21.841Z,94074.25
2022-12-23T07:03:25.103Z,94079.66
2022-12-23T07:06:28.285Z,94073.53
2022-12-23T07:09:31.477Z,94074.03
2022-12-23T07:12:34.775Z,94077.88
2022-12-23T07:15:38.904Z,94078.94
2022-12-23T07:18:45.287Z,94086.38
2022-12-23T07:21:48.394Z,94084.72
2022-12-23T07:24:51.416Z,94086.09
2022-12-23T07:27:57.878Z,94094.75
2022-12-23T07:31:01.159Z,94090.63
2022-12-23T07:34:04.368Z,94102.22
2022-12-23T07:37:07.453Z,94107.59
2022-12-23T07:40:11.526Z,94105.50
2022-12-23T07:43:14.752Z,94112.69
2022-12-23T07:46:17.949Z,94104.63
2022-12-23T07:49:21.131Z,94114.31
2022-12-23T07:52:24.256Z,94099.88
2022-12-23T07:55:27.728Z,94106.56
2022-12-23T07:58:30.841Z,94099.47
2022-12-23T08:01:34.045Z,94098.69
2022-12-23T08:04:42.566Z,94095.66
2022-12-23T08:07:50.567Z,94108.81
2022-12-23T08:10:59.058Z,94109.84
2022-12-23T08:14:02.149Z,94113.13
2022-12-23T08:17:05.603Z,94119.63
2022-12-23T08:20:09.424Z,94115.84
2022-12-23T08:23:12.845Z,94117.69
2022-12-23T08:26:18.916Z,94122.41
2022-12-23T08:29:22.043Z,94125.75
2022-12-23T08:32:28.043Z,94131.84
2022-12-23T08:35:31.565Z,94138.88
2022-12-23T08:38:35.175Z,94142.50
2022-12-23T08:41:41.717Z,94136.31
2022-12-23T08:44:44.917Z,94141.84
2022-12-23T08:47:48.023Z,94141.84
2022-12-23T08:50:51.217Z,94131.66
2022-12-23T08:54:00.847Z,94130.69
2022-12-23T08:57:04.645Z,94128.19
2022-12-23T09:00:08.431Z,94129.25
2022-12-23T09:03:11.725Z,94130.53
2022-12-23T09:06:24.700Z,94134.50
2022-12-23T09:09:31.533Z,94144.97
2022-12-23T09:12:34.741Z,94137.66
2022-12-23T09:15:45.059Z,94139.88
2022-12-23T09:18:48.225Z,94139.06
2022-12-23T09:21:51.527Z,94143.53
2022-12-23T09:25:01.247Z,94136.44
2022-12-23T09:28:08.095Z,94139.88
2022-12-23T09:31:13.153Z,94146.41
2022-12-23T09:34:16.356Z,94149.41
2022-12-23T09:37:19.480Z,94151.81
2022-12-23T09:40:23.871Z,94164.94
2022-12-23T09:43:39.664Z,94153.94
2022-12-23T09:46:54.880Z,94152.78
2022-12-23T09:50:04.333Z,94159.69
2022-12-23T09:53:20.283Z,94153.06
2022-12-23T09:56:37.223Z,94164.25
2022-12-23T10:00:12.926Z,94150.22
2022-12-23T10:03:25.388Z,94144.09
2022-12-23T10:06:30.257Z,94156.84
2022-12-23T10:09:38.722Z,94153.16
2022-12-23T10:12:45.811Z,94156.28
2022-12-23T10:15:52.793Z,94154.19
2022-12-23T10:19:21.794Z,94161.59
2022-12-23T10:22:33.141Z,94155.13
2022-12-23T10:25:41.587Z,94170.91
2022-12-23T10:28:44.622Z,94160.41
2022-12-23T10:32:12.708Z,94167.00
2022-12-23T10:35:42.846Z,94162.75
2022-12-23T10:38:57.575Z,94167.06
2022-12-23T10:42:56.011Z,94164.50
2022-12-23T10:46:26.297Z,94159.59
2022-12-23T10:50:02.423Z,94162.34
2022-12-23T10:53:11.573Z,94152.56
2022-12-23T10:56:15.123Z,94164.28
2022-12-23T10:59:27.219Z,94170.44
2022-12-23T11:02:44.298Z,94165.69
2022-12-23T11:05:50.497Z,94169.84
2022-12-23T11:08:54.223Z,94176.91
2022-12-23T11:12:09.433Z,94177.56
2022-12-23T11:15:37.820Z,94180.34
2022-12-23T11:18:57.283Z,94174.88
2022-12-23T11:22:02.093Z,94179.47
2022-12-23T11:25:28.441Z,94177.16
2022-12-23T11:28:33.322Z,94181.03
2022-12-23T11:31:37.311Z,94181.72
2022-12-23T11:34:44.917Z,94177.72
2022-12-23T11:37:48.175Z,94186.03
2022-12-23T11:40:51.961Z,94180.28
2022-12-23T11:44:06.058Z,94186.41
2022-12-23T11:47:35.603Z,94186.53
2022-12-23T11:50:41.993Z,94187.94
2022-12-23T11:53:45.665Z,94200.00
2022-12-23T11:56:50.533Z,94194.72
2022-12-23T12:00:00.947Z,94197.16
2022-12-23T12:03:06.049Z,94195.19
2022-12-23T12:06:14.750Z,94192.84
2022-12-23T12:09:18.496Z,94198.78
2022-12-23T12:12:23.032Z,94187.66
2022-12-23T12:15:58.346Z,94188.94
2022-12-23T12:19:26.818Z,94189.50
2022-12-23T12:23:02.395Z,94199.22
2022-12-23T12:26:18.530Z,94204.22
2022-12-23T12:29:27.445Z,94199.03
2022-12-23T12:32:44.328Z,94195.88
2022-12-23T12:36:01.725Z,94192.25
2022-12-23T12:39:30.692Z,94198.63
2022-12-23T12:42:49.790Z,94192.41
2022-12-23T12:46:19.542Z,94187.84
2022-12-23T12:49:29.886Z,94188.41
2022-12-23T12:52:39.902Z,94193.94
2022-12-23T12:55:49.676Z,94193.53
2022-12-23T12:58:52.884Z,94197.22
2022-12-23T13:02:29.992Z,94188.06
2022-12-23T13:05:38.600Z,94193.75
2022-12-23T13:09:01.807Z,94192.19
2022-12-23T13:12:18.547Z,94196.78
2022-12-23T13:15:21.657Z,94187.25
2022-12-23T13:18:54.807Z,94180.34
2022-12-23T13:22:16.401Z,94187.53
2022-12-23T13:25:25.144Z,94185.28
2022-12-23T13:29:18.774Z,94187.22
2022-12-23T13:32:21.960Z,94187.22
2022-12-23T13:35:37.133Z,94179.44
2022-12-23T13:38:42.998Z,94182.28
2022-12-23T13:41:49.987Z,94181.44
2022-12-23T13:44:53.760Z,94179.41
2022-12-23T13:48:34.058Z,94171.13
2022-12-23T13:51:49.460Z,94181.19
2022-12-23T13:55:17.449Z,94186.03
2022-12-23T13:58:23.411Z,94184.19
2022-12-23T14:01:48.420Z,94170.88
2022-12-23T14:04:59.498Z,94172.56
2022-12-23T14:08:24.865Z,94162.75
2022-12-23T14:11:29.444Z,94163.97
2022-12-23T14:14:32.821Z,94170.25
2022-12-23T14:17:52.813Z,94161.13
2022-12-23T14:21:14.563Z,94163.78
2022-12-23T14:24:55.034Z,94167.91
2022-12-23T14:28:31.512Z,94166.75
2022-12-23T14:31:43.931Z,94161.94
2022-12-23T14:35:22.621Z,94170.41
2022-12-23T14:38:31.783Z,94142.47
2022-12-23T14:41:50.736Z,94168.75
2022-12-23T14:44:54.134Z,94160.03
2022-12-23T14:47:57.388Z,94160.84
2022-12-23T14:51:05.219Z,94168.38
2022-12-23T14:54:08.353Z,94173.63
2022-12-23T14:57:20.067Z,94175.69
2022-12-23T15:00:23.400Z,94175.97
2022-12-23T15:03:27.358Z,94182.44
2022-12-23T15:06:40.742Z,94189.22
2022-12-23T15:10:00.479Z,94191.97
2022-12-23T15:13:06.997Z,94185.19
2022-12-23T15:16:17.181Z,94177.31
2022-12-23T15:19:27.980Z,94174.81
2022-12-23T15:22:34.037Z,94177.19
2022-12-23T15:25:42.220Z,94177.47
2022-12-23T15:28:45.428Z,94182.34
2022-12-23T15:31:54.903Z,94177.34
2022-12-23T15:35:04.437Z,94179.84
2022-12-23T15:38:07.944Z,94169.50
2022-12-23T15:41:19.139Z,94170.16
2022-12-23T15:44:25.508Z,94163.78
2022-12-23T15:47:39.211Z,94164.91
2022-12-23T15:50:42.795Z,94171.53
2022-12-23T15:53:47.717Z,94172.78
2022-12-23T15:56:54.006Z,94177.06
2022-12-23T15:59:58.919Z,94186.22
2022-12-23T16:03:04.705Z,94183.03
2022-12-23T16:06:35.223Z,94177.06
2022-12-23T16:09:38.420Z,94176.81
2022-12-23T16:12:43.079Z,94181.09
2022-12-23T16:15:47.110Z,94180.97
2022-12-23T16:18:50.264Z,94180.66
2022-12-23T16:21:53.429Z,94181.78
2022-12-23T16:25:13.192Z,94171.53
2022-12-23T16:28:23.617Z,94177.50
2022-12-23T16:31:26.951Z,94181.22
2022-12-23T16:34:32.574Z,94185.50
2022-12-23T16:37:35.686Z,94187.59
2022-12-23T16:40:39.056Z,94187.88
2022-12-23T16:43:49.562Z,94190.06
2022-12-23T16:46:54.843Z,94195.06
2022-12-23T16:49:57.922Z,94193.38
2022-12-23T16:53:01.025Z,94202.25
2022-12-23T16:56:10.673Z,94202.66
2022-12-23T16:59:14.531Z,94199.59
2022-12-23T17:02:30.648Z,94201.25
2022-12-23T17:05:34.144Z,94200.91
2022-12-23T17:08:36.896Z,94196.06
2022-12-23T17:11:44.429Z,94195.13
2022-12-23T17:14:47.497Z,94181.69
2022-12-23T17:17:51.883Z,94189.16
2022-12-23T17:20:55.071Z,94194.00
2022-12-23T17:24:12.935Z,94191.00
2022-12-23T17:27:18.601Z,94182.97
2022-12-23T17:30:26.010Z,94183.84
2022-12-23T17:33:31.169Z,94186.59
2022-12-23T17:36:34.327Z,94206.66
2022-12-23T17:39:37.402Z,94210.78
2022-12-23T17:42:41.082Z,94213.38
2022-12-23T17:45:45.793Z,94204.38
2022-12-23T17:48:49.032Z,94203.84
2022-12-23T17:51:52.135Z,94206.03
2022-12-23T17:54:56.716Z,94210.75
2022-12-23T17:57:59.906Z,94219.50
2022-12-23T18:01:03.092Z,94215.63
2022-12-23T18:04:06.292Z,94207.13
2022-12-23T18:07:11.768Z,94207.88
2022-12-23T18:10:17.820Z,94201.66
2022-12-23T18:13:22.110Z,94204.31
2022-12-23T18:16:25.347Z,94196.75
2022-12-23T18:19:28.427Z,94195.13
2022-12-23T18:22:31.883Z,94188.94
2022-12-23T18:25:34.977Z,94196.97
2022-12-23T18:28:38.012Z,94192.44
2022-12-23T18:31:51.022Z,94185.47
2022-12-23T18:34:55.889Z,94192.22
2022-12-23T18:38:00.314Z,94190.38
2022-12-23T18:41:03.444Z,94197.56
2022-12-23T18:44:06.508Z,94200.19
2022-12-23T18:47:10.403Z,94191.72
2022-12-23T18:50:13.533Z,94194.94
2022-12-23T18:53:23.822Z,94196.94
2022-12-23T18:56:27.570Z,94201.50
2022-12-23T18:59:33.455Z,94199.81
2022-12-23T19:02:36.698Z,94210.53
2022-12-23T19:05:39.927Z,94211.63
2022-12-23T19:08:44.132Z,94216.44
2022-12-23T19:11:48.958Z,94205.63
2022-12-23T19:14:52.161Z,94209.75
2022-12-23T19:17:55.241Z,94229.03
2022-12-23T19:20:58.808Z,94226.22
2022-12-23T19:24:03.125Z,94217.38
2022-12-23T19:27:06.493Z,94215.34
2022-12-23T19:30:14.417Z,94214.88
2022-12-23T19:33:17.868Z,94213.63
2022-12-23T19:36:23.347Z,94207.16
2022-12-23T19:39:27.607Z,94191.53
2022-12-23T19:42:31.234Z,94198.84
2022-12-23T19:45:34.323Z,94214.22
2022-12-23T19:48:38.184Z,94206.25
2022-12-23T19:51:41.222Z,94194.94
2022-12-23T19:54:44.333Z,94196.66
2022-12-23T19:57:47.441Z,94194.31
2022-12-23T20:00:50.557Z,94194.84
2022-12-23T20:03:56.297Z,94201.16
2022-12-23T20:06:59.368Z,94189.22
2022-12-23T20:10:02.524Z,94193.03
2022-12-23T20:13:05.582Z,94197.91
2022-12-23T20:16:09.471Z,94194.50
2022-12-23T20:19:12.512Z,94188.06
2022-12-23T20:22:15.555Z,94185.31
2022-12-23T20:25:18.708Z,94189.28
2022-12-23T20:28:22.140Z,94190.78
2022-12-23T20:31:28.110Z,94179.09
2022-12-23T20:34:38.334Z,94178.13
2022-12-23T20:37:41.613Z,94181.88
2022-12-23T20:40:44.661Z,94174.59
2022-12-23T20:44:02.763Z,94182.19
2022-12-23T20:47:11.384Z,94174.69
2022-12-23T20:50:15.335Z,94185.03
2022-12-23T20:53:18.331Z,94174.00
2022-12-23T20:56:22.843Z,94176.78
2022-12-23T20:59:26.005Z,94180.06
2022-12-23T21:02:29.072Z,94180.78
2022-12-23T21:05:32.203Z,94178.56
2022-12-23T21:08:36.885Z,94175.53
2022-12-23T21:11:43.605Z,94175.84
2022-12-23T21:14:46.772Z,94174.75
2022-12-23T21:17:49.926Z,94180.16
2022-12-23T21:20:53.018Z,94177.66
2022-12-23T21:23:58.266Z,94171.50
2022-12-23T21:27:01.401Z,94167.47
2022-12-23T21:30:04.880Z,94156.75
2022-12-23T21:33:07.764Z,94162.13
2022-12-23T21:36:17.907Z,94165.13
2022-12-23T21:39:22.980Z,94165.81
2022-12-23T21:42:26.078Z,94169.44
2022-12-23T21:45:29.153Z,94172.06
2022-12-23T21:48:34.048Z,94176.59
2022-12-23T21:51:40.801Z,94172.53
2022-12-23T21:54:44.511Z,94175.97
2022-12-23T21:57:48.238Z,94186.00
2022-12-23T22:00:51.776Z,94172.50
2022-12-23T22:03:56.122Z,94179.09
2022-12-23T22:06:59.265Z,94178.28
2022-12-23T22:10:02.371Z,94187.41
2022-12-23T22:13:06.436Z,94187.56
2022-12-23T22:16:11.702Z,94192.94
2022-12-23T22:19:15.464Z,94185.22
2022-12-23T22:22:18.628Z,94192.53
2022-12-23T22:25:22.276Z,94199.19
2022-12-23T22:28:25.402Z,94192.13
2022-12-23T22:31:35.566Z,94187.16
2022-12-23T22:34:38.767Z,94183.00
2022-12-23T22:37:41.872Z,94184.09
2022-12-23T22:40:50.076Z,94188.66
2022-12-23T22:43:53.334Z,94188.66
2022-12-23T22:46:56.517Z,94189.75
2022-12-23T22:49:59.587Z,94188.41
2022-12-23T22:53:02.633Z,94188.09
2022-12-23T22:56:06.628Z,94197.22
2022-12-23T22:59:24.861Z,94201.38
2022-12-23T23:02:28.275Z,94195.19
2022-12-23T23:05:31.568Z,94193.69
2022-12-23T23:08:35.389Z,94208.88
2022-12-23T23:11:38.545Z,94206.41
2022-12-23T23:14:53.728Z,94193.97
2022-12-23T23:17:57.651Z,94201.16
2022-12-23T23:21:01.296Z,94215.34
2022-12-23T23:24:05.692Z,94212.56
2022-12-23T23:27:08.927Z,94212.56
2022-12-23T23:30:12.405Z,94217.53
2022-12-23T23:33:15.658Z,94225.69
2022-12-23T23:36:18.814Z,94214.38
2022-12-23T23:39:21.946Z,94205.16
2022-12-23T23:42:25.041Z,94202.63
2022-12-23T23:45:28.226Z,94188.31
2022-12-23T23:48:31.313Z,94196.47
2022-12-23T23:51:34.355Z,94200.41
2022-12-23T23:54:37.746Z,94186.16
2022-12-23T23:57:40.517Z,94198.72
